Time;durP1;ratioP1;P1;durP2;ratioP2;P2;SDS_P1;SDS_P2;PMS_P1;PMS_P2;Temp;Humidity;BMP_temperature;BMP_pressure;BME280_temperature;BME280_humidity;BME280_pressure;Samples;Min_cycle;Max_cycle;Signal;HPM_P1;HPM_P2
2022/05/02 00:00:06;;;;;;;10.78;8.20;;;;;;;10.49;49.07;100817.61;1639758;86;21022;-68
2022/05/02 00:02:32;;;;;;;9.10;7.53;;;;;;;10.46;48.60;100820.14;1640476;86;21137;-69
2022/05/02 00:05:00;;;;;;;11.63;7.43;;;;;;;10.44;48.65;100817.33;1652363;86;21064;-69
2022/05/02 00:07:26;;;;;;;;;;;;;;;10.41;47.58;100814.50;1651210;86;21566;-69
2022/05/02 00:09:54;;;;;;;6.58;5.95;;;;;;;10.44;47.54;100813.34;1651356;86;20149;-69
2022/05/02 00:12:20;;;;;;;8.53;6.70;;;;;;;10.37;47.44;100811.86;1639837;86;21069;-70
2022/05/02 00:14:48;;;;;;;6.73;6.00;;;;;;;10.40;47.24;100808.03;1636110;86;21112;-69
2022/05/02 00:17:17;;;;;;;7.73;6.20;;;;;;;10.41;47.09;100810.50;1639491;86;21097;-68
2022/05/02 00:19:43;;;;;;;6.70;6.05;;;;;;;10.42;46.92;100817.50;1641361;86;21085;-69
2022/05/02 00:22:09;;;;;;;9.45;6.62;;;;;;;10.42;46.74;100815.35;1640879;86;21049;-69
2022/05/02 00:24:37;;;;;;;5.37;4.97;;;;;;;10.43;46.83;100808.48;1640916;86;21223;-69
2022/05/02 00:27:05;;;;;;;7.07;6.20;;;;;;;10.42;46.53;100806.84;1637520;86;21049;-69
2022/05/02 00:29:31;;;;;;;7.73;5.87;;;;;;;10.43;46.99;100807.66;1641140;86;21084;-69
2022/05/02 00:31:58;;;;;;;5.87;5.33;;;;;;;10.42;46.64;100810.02;1640851;86;22235;-69
2022/05/02 00:34:24;;;;;;;;;;;;;;;10.42;46.34;100808.17;1643168;86;20975;-70
2022/05/02 00:36:50;;;;;;;7.73;5.10;;;;;;;10.44;46.76;100814.16;1640414;86;20144;-71
2022/05/02 00:39:16;;;;;;;6.60;5.72;;;;;;;10.39;46.24;100809.84;1637545;86;21157;-69
2022/05/02 00:41:43;;;;;;;5.43;4.93;;;;;;;10.42;46.09;100812.69;1641267;86;21152;-69
2022/05/02 00:44:09;;;;;;;6.45;5.75;;;;;;;10.46;46.42;100810.81;1638531;86;21090;-69
2022/05/02 00:46:36;;;;;;;7.50;6.22;;;;;;;10.49;46.71;100813.13;1593924;90;21088;-68
2022/05/02 00:49:02;;;;;;;6.53;5.93;;;;;;;10.51;47.14;100807.13;1593495;89;21076;-68
2022/05/02 00:51:28;;;;;;;7.30;6.15;;;;;;;10.51;47.52;100811.13;1591216;90;21183;-68
2022/05/02 00:53:55;;;;;;;6.85;6.15;;;;;;;10.54;47.74;100813.11;1590853;89;21110;-68
2022/05/02 00:56:21;;;;;;;7.22;5.35;;;;;;;10.57;47.96;100815.39;1642764;86;21318;-70
2022/05/02 00:58:50;;;;;;;5.60;5.10;;;;;;;10.55;47.96;100807.60;1660251;86;21153;-70
2022/05/02 01:01:17;;;;;;;6.37;5.30;;;;;;;10.56;47.88;100808.42;1663611;85;21015;-69
2022/05/02 01:03:44;;;;;;;8.53;6.27;;;;;;;10.55;47.90;100810.27;1652754;86;21246;-69
2022/05/02 01:08:55;;;;;;;9.03;5.20;;;;;;;10.55;47.21;100804.94;1666489;85;20137;-70
2022/05/02 01:11:22;;;;;;;6.00;5.40;;;;;;;10.47;45.93;100804.97;1661045;85;21075;-69
2022/05/02 01:13:50;;;;;;;6.70;5.20;;;;;;;10.43;45.62;100805.82;1659782;84;21070;-69
2022/05/02 01:17:26;;;;;;;5.85;5.15;;;;;;;10.49;45.91;100801.62;1801126;79;22267;-70
2022/05/02 01:19:52;;;;;;;8.53;5.72;;;;;;;10.46;45.82;100808.14;1760603;80;21042;-69
2022/05/02 01:22:18;;;;;;;5.87;4.42;;;;;;;10.45;46.18;100799.84;1753621;80;21042;-70
2022/05/02 01:24:47;;;;;;;;;;;;;;;10.45;46.54;100800.32;1719187;83;21208;-69
2022/05/02 01:27:15;;;;;;;9.17;5.70;;;;;;;10.43;46.58;100801.00;1704228;83;20203;-69
2022/05/02 01:29:43;;;;;;;5.67;5.03;;;;;;;10.30;46.83;100798.42;1727818;83;21632;-70
2022/05/02 01:32:12;;;;;;;7.03;5.17;;;;;;;10.28;47.47;100795.08;1687563;83;21045;-70
2022/05/02 01:34:40;;;;;;;6.43;5.20;;;;;;;10.25;47.37;100794.59;1637175;86;21411;-69
2022/05/02 01:37:08;;;;;;;10.33;5.47;;;;;;;10.22;47.78;100796.27;1657399;84;21061;-69
2022/05/02 01:39:34;;;;;;;6.80;6.23;;;;;;;10.20;47.98;100799.61;1657012;85;21144;-70
2022/05/02 01:42:07;;;;;;;7.10;5.60;;;;;;;10.18;48.12;100799.78;1650149;85;21062;-69
2022/05/02 01:44:36;;;;;;;7.57;6.43;;;;;;;10.14;48.03;100802.47;1658617;85;21078;-69
2022/05/02 01:47:03;;;;;;;8.57;6.03;;;;;;;10.10;48.54;100795.83;1647902;86;21087;-70
2022/05/02 01:49:29;;;;;;;7.53;6.30;;;;;;;10.07;48.74;100794.84;1644385;85;21071;-69
2022/05/02 01:51:57;;;;;;;11.10;7.17;;;;;;;10.05;48.89;100791.52;1652743;85;21076;-69
2022/05/02 01:54:25;;;;;;;9.87;7.17;;;;;;;9.99;49.47;100797.55;1653982;85;21099;-71
2022/05/02 01:56:52;;;;;;;9.03;6.87;;;;;;;9.94;49.18;100794.91;1661801;85;21044;-71
2022/05/02 01:59:18;;;;;;;6.80;6.10;;;;;;;9.89;49.79;100787.93;1672029;85;21026;-70
2022/05/02 02:01:45;;;;;;;10.32;6.97;;;;;;;9.85;50.00;100797.27;1676474;84;21045;-69
2022/05/02 02:06:54;;;;;;;10.33;7.43;;;;;;;9.83;50.35;100794.43;1600671;87;21084;-69
2022/05/02 02:09:21;;;;;;;7.92;6.47;;;;;;;9.82;51.13;100788.80;1649059;85;21021;-70
2022/05/02 02:11:47;;;;;;;7.10;6.20;;;;;;;9.82;51.47;100792.28;1672258;84;21027;-70
2022/05/02 02:14:13;;;;;;;8.80;6.83;;;;;;;9.80;51.55;100792.95;1659542;84;21072;-69
2022/05/02 02:16:40;;;;;;;7.60;6.90;;;;;;;9.80;51.73;100792.13;1660160;84;21173;-68
2022/05/02 02:19:06;;;;;;;8.13;6.60;;;;;;;9.78;51.91;100790.15;1643832;87;21104;-69
2022/05/02 02:21:33;;;;;;;11.88;6.72;;;;;;;9.78;52.27;100790.97;1644752;86;21292;-68
2022/05/02 02:24:00;;;;;;;10.87;6.57;;;;;;;9.76;52.61;100788.98;1652840;86;21575;-69
2022/05/02 02:26:27;;;;;;;7.83;7.00;;;;;;;9.74;52.36;100792.32;1628962;86;21109;-69
2022/05/02 02:28:53;;;;;;;13.13;6.87;;;;;;;9.71;52.12;100791.32;1675011;84;21085;-67
2022/05/02 02:31:19;;;;;;;8.30;7.30;;;;;;;9.71;52.12;100791.32;1683358;84;21077;-70
2022/05/02 02:33:45;;;;;;;7.72;6.92;;;;;;;9.71;52.28;100796.64;1658025;84;21050;-69
2022/05/02 02:36:12;;;;;;;9.38;7.03;;;;;;;9.71;52.40;100794.80;1652332;85;21521;-70
2022/05/02 02:38:38;;;;;;;10.95;7.35;;;;;;;9.72;52.32;100791.66;1645127;86;21047;-69
2022/05/02 02:41:04;;;;;;;6.95;6.22;;;;;;;9.71;52.48;100786.82;1650669;85;21048;-71
2022/05/02 02:43:30;;;;;;;7.40;6.70;;;;;;;9.71;51.88;100788.66;1648066;86;21099;-69
2022/05/02 02:45:56;;;;;;;9.40;6.50;;;;;;;9.68;52.15;100788.52;1674851;83;21098;-70
2022/05/02 02:48:22;;;;;;;8.25;6.67;;;;;;;9.66;52.13;100789.19;1673000;83;21121;-70
2022/05/02 02:50:48;;;;;;;7.12;6.30;;;;;;;9.63;52.26;100793.52;1671444;83;21081;-70
2022/05/02 02:53:15;;;;;;;11.12;8.23;;;;;;;9.62;52.53;100785.19;1671883;83;21059;-69
2022/05/02 02:55:43;;;;;;;9.27;7.03;;;;;;;9.63;52.91;100788.70;1684885;83;21058;-69
2022/05/02 02:58:09;;;;;;;8.83;6.73;;;;;;;9.64;53.05;100794.33;1691882;83;21125;-69
2022/05/02 03:00:36;;;;;;;8.85;7.95;;;;;;;9.66;53.11;100791.84;1683371;83;21053;-69
2022/05/02 03:03:05;;;;;;;11.93;8.40;;;;;;;9.72;53.53;100791.66;1669824;83;21040;-69
2022/05/02 03:08:18;;;;;;;10.10;8.00;;;;;;;9.66;53.40;100798.50;1682178;83;21034;-69
2022/05/02 03:10:44;;;;;;;9.78;6.47;;;;;;;9.63;53.79;100793.52;1693980;83;21102;-70
2022/05/02 03:13:11;;;;;;;11.27;8.00;;;;;;;9.60;53.91;100797.02;1684265;83;21125;-69
2022/05/02 03:15:38;;;;;;;10.10;7.33;;;;;;;9.59;54.10;100795.33;1684286;83;21042;-69
2022/05/02 03:18:04;;;;;;;11.70;8.25;;;;;;;9.60;53.94;100797.02;1662901;84;21162;-69
2022/05/02 03:20:32;;;;;;;8.13;6.90;;;;;;;9.57;53.99;100792.02;1684885;85;21296;-69
2022/05/02 03:22:58;;;;;;;10.70;7.33;;;;;;;9.53;54.34;100801.69;1682709;84;21027;-69
2022/05/02 03:25:24;;;;;;;8.45;7.28;;;;;;;9.49;54.50;100799.05;1657363;84;21572;-70
2022/05/02 03:27:50;;;;;;;;;;;;;;;9.48;54.57;100796.04;1662081;84;21547;-70
2022/05/02 03:30:17;;;;;;;7.57;6.43;;;;;;;9.48;54.58;100798.70;1675350;84;20156;-70
2022/05/02 03:32:43;;;;;;;14.43;7.65;;;;;;;9.46;54.67;100802.03;1657224;84;21111;-70
2022/05/02 03:35:09;;;;;;;7.95;7.15;;;;;;;9.50;54.46;100805.19;1657376;84;21091;-70
2022/05/02 03:37:36;;;;;;;;;;;;;;;9.54;54.21;100807.33;1659747;84;21078;-69
2022/05/02 03:40:03;;;;;;;9.03;7.27;;;;;;;9.59;53.89;100811.30;1657295;84;20119;-70
2022/05/02 03:42:29;;;;;;;8.23;7.37;;;;;;;9.59;53.79;100812.63;1676912;84;21995;-68
2022/05/02 03:44:56;;;;;;;7.92;6.87;;;;;;;9.66;53.57;100810.96;1672426;84;21681;-69
2022/05/02 03:47:23;;;;;;;12.13;7.80;;;;;;;9.71;53.33;100812.11;1645941;85;21114;-70
2022/05/02 03:49:49;;;;;;;8.55;7.58;;;;;;;9.82;53.28;100816.75;1617255;88;21030;-71
2022/05/02 03:52:17;;;;;;;10.43;7.13;;;;;;;10.09;53.19;100812.30;1649661;85;21027;-70
2022/05/02 03:54:43;;;;;;;9.63;7.13;;;;;;;10.59;52.83;100820.08;1647340;85;21062;-71
2022/05/02 03:57:09;;;;;;;10.88;7.20;;;;;;;11.17;51.59;100810.63;1645440;85;21231;-71
2022/05/02 03:59:36;;;;;;;10.78;6.87;;;;;;;11.80;50.24;100815.14;1620303;87;21094;-70
2022/05/02 04:02:02;;;;;;;9.00;7.30;;;;;;;12.40;48.93;100807.08;1607693;87;21021;-71
2022/05/02 04:04:28;;;;;;;11.45;7.45;;;;;;;13.02;47.34;100806.45;1649639;85;21106;-70
2022/05/02 04:06:54;;;;;;;11.45;7.92;;;;;;;13.68;45.84;100805.30;1649495;87;21419;-70
2022/05/02 04:09:20;;;;;;;9.95;7.35;;;;;;;14.34;44.08;100806.63;1620988;87;21098;-71
2022/05/02 04:11:47;;;;;;;14.03;7.22;;;;;;;14.97;42.25;100805.84;1610946;87;21102;-71
2022/05/02 04:14:13;;;;;;;8.68;6.65;;;;;;;15.47;41.04;100797.86;1587446;87;21107;-72
2022/05/02 04:16:39;;;;;;;7.40;6.08;;;;;;;15.56;39.95;100805.48;1615644;87;21163;-72
2022/05/02 04:19:06;;;;;;;;;;;;;;;15.32;39.76;100805.61;1636320;86;21182;-72
2022/05/02 04:21:33;;;;;;;10.03;7.25;;;;;;;14.90;39.79;100806.84;1630054;88;20480;-72
2022/05/02 04:24:00;;;;;;;12.85;7.90;;;;;;;14.25;40.90;100808.64;1629910;86;21041;-71
2022/05/02 04:26:26;;;;;;;10.93;6.97;;;;;;;13.72;42.12;100809.23;1634631;86;21574;-72
2022/05/02 04:28:52;;;;;;;17.85;8.90;;;;;;;13.33;43.23;100809.80;1588251;89;21573;-71
2022/05/02 04:31:19;;;;;;;14.68;8.00;;;;;;;13.06;43.89;100802.87;1624269;86;21157;-71
2022/05/02 04:33:45;;;;;;;14.10;7.97;;;;;;;13.06;44.26;100816.25;1633337;86;21079;-71
2022/05/02 04:36:12;;;;;;;13.00;7.78;;;;;;;13.47;43.98;100817.41;1633680;86;21608;-71
2022/05/02 04:38:38;;;;;;;11.83;7.15;;;;;;;14.23;43.34;100810.70;1621395;87;21107;-72
2022/05/02 04:41:05;;;;;;;16.70;7.53;;;;;;;15.12;41.20;100808.83;1646739;86;21339;-72
2022/05/02 04:43:31;;;;;;;9.65;7.05;;;;;;;15.97;39.56;100807.55;1646319;86;21140;-69
2022/05/02 04:45:59;;;;;;;7.62;6.50;;;;;;;16.67;37.50;100802.75;1642314;86;21124;-72
2022/05/02 04:48:25;;;;;;;10.43;5.62;;;;;;;17.19;36.38;100803.95;1643298;85;21553;-72
2022/05/02 04:50:51;;;;;;;7.28;5.97;;;;;;;17.59;34.89;100798.98;1633529;86;21189;-74
2022/05/02 04:53:17;;;;;;;10.58;6.90;;;;;;;17.96;34.82;100801.73;1632246;86;21117;-73
2022/05/02 04:55:43;;;;;;;5.47;4.97;;;;;;;18.47;33.90;100801.78;1634674;87;21033;-74
2022/05/02 04:58:09;;;;;;;;;;;;;;;18.86;33.31;100800.93;1635899;86;21053;-72
2022/05/02 05:00:39;;;;;;;6.45;4.95;;;;;;;19.32;32.62;100792.28;1633458;86;20136;-72
2022/05/02 05:03:05;;;;;;;4.37;3.95;;;;;;;19.70;31.54;100792.30;1610174;88;21110;-71
2022/05/02 05:05:33;;;;;;;4.12;3.55;;;;;;;20.00;30.79;100788.92;1633506;86;21076;-72
2022/05/02 05:07:59;;;;;;;4.70;3.17;;;;;;;20.25;29.62;100789.13;1622906;86;21101;-72
2022/05/02 05:10:26;;;;;;;3.40;3.10;;;;;;;20.46;29.25;100791.68;1624848;86;21142;-73
2022/05/02 05:13:00;;;;;;;5.47;2.65;;;;;;;20.69;28.22;100789.94;1633363;86;21032;-73
2022/05/02 05:16:21;;;;;;;3.83;2.75;;;;;;;20.60;27.87;100790.87;1634151;86;21085;-73
2022/05/02 05:19:10;;;;;;;7.47;3.55;;;;;;;19.98;28.19;100788.86;1621087;86;21044;-73
2022/05/02 05:22:00;;;;;;;3.60;3.02;;;;;;;19.31;29.17;100789.27;1637325;86;21114;-72
2022/05/02 05:25:15;;;;;;;3.25;2.62;;;;;;;19.18;29.58;100792.52;1619934;87;21062;-73
2022/05/02 05:28:06;;;;;;;4.12;3.20;;;;;;;19.11;30.24;100793.69;1621049;87;21070;-74
2022/05/02 05:30:40;;;;;;;3.20;2.77;;;;;;;19.31;29.80;100786.56;1648719;85;21086;-72
2022/05/02 05:33:34;;;;;;;5.17;2.62;;;;;;;19.56;28.57;100786.34;1634435;86;21091;-71
2022/05/02 05:36:10;;;;;;;2.92;2.40;;;;;;;19.82;28.30;100789.90;1613792;87;21086;-71
2022/05/02 05:39:06;;;;;;;6.28;2.60;;;;;;;20.09;27.98;100791.24;1633654;86;21524;-70
2022/05/02 05:42:05;;;;;;;3.02;2.62;;;;;;;20.20;27.92;100793.90;1619089;86;21228;-72
2022/05/02 05:45:03;;;;;;;1.90;1.55;;;;;;;20.40;28.07;100793.48;1618948;86;21545;-73
2022/05/02 05:48:04;;;;;;;8.05;2.47;;;;;;;20.65;27.88;100793.67;1634486;86;21103;-73
2022/05/02 05:50:42;;;;;;;4.75;1.72;;;;;;;20.55;27.24;100789.38;1634110;86;21150;-73
2022/05/02 05:53:39;;;;;;;2.47;2.03;;;;;;;20.20;28.03;100786.32;1632187;87;21650;-71
2022/05/02 05:56:17;;;;;;;1.72;1.37;;;;;;;19.86;28.45;100790.25;1636491;86;21061;-72
2022/05/02 05:59:03;;;;;;;2.75;2.02;;;;;;;19.43;27.96;100783.34;1656078;85;21648;-73
2022/05/02 06:01:35;;;;;;;4.75;1.47;;;;;;;19.02;28.46;100789.14;1623920;87;21065;-73
2022/05/02 06:04:07;;;;;;;3.50;2.27;;;;;;;18.59;29.10;100792.90;1620611;87;21139;-73
2022/05/02 06:06:36;;;;;;;4.05;1.85;;;;;;;18.27;29.74;100786.39;1621194;87;21243;-71
2022/05/02 06:09:06;;;;;;;3.83;1.70;;;;;;;17.96;30.25;100790.94;1647891;85;21064;-72
2022/05/02 06:11:33;;;;;;;1.87;1.10;;;;;;;17.42;31.25;100793.39;1629392;86;21260;-71
2022/05/02 06:14:02;;;;;;;2.08;1.82;;;;;;;17.42;31.25;100793.39;1651023;86;21046;-72
2022/05/02 06:19:28;;;;;;;4.95;2.37;;;;;;;16.95;31.52;100792.13;1647788;86;21049;-71
2022/05/02 06:21:56;;;;;;;2.90;2.25;;;;;;;16.76;31.94;100796.06;1652693;86;21134;-71
2022/05/02 06:24:26;;;;;;;3.87;2.47;;;;;;;16.65;32.57;100797.61;1655877;86;21971;-73
2022/05/02 06:26:55;;;;;;;3.62;2.15;;;;;;;16.63;32.55;100797.50;1629699;86;21025;-71
2022/05/02 06:29:24;;;;;;;3.87;2.65;;;;;;;16.61;32.79;100799.05;1654032;86;21134;-72
2022/05/02 06:31:54;;;;;;;4.92;2.62;;;;;;;16.60;32.70;100795.27;1648849;86;20987;-73
2022/05/02 06:34:24;;;;;;;3.10;2.25;;;;;;;16.65;32.97;100798.95;1652217;86;21037;-72
2022/05/02 06:37:16;;;;;;;3.10;2.70;;;;;;;16.80;33.37;100799.14;1654421;86;21081;-73
2022/05/02 06:40:02;;;;;;;2.45;2.15;;;;;;;16.85;32.18;100793.44;1646776;86;21569;-72
2022/05/02 06:42:52;;;;;;;1.82;1.72;;;;;;;16.91;33.07;100791.74;1634878;86;21066;-72
2022/05/02 06:45:32;;;;;;;3.92;2.25;;;;;;;17.15;32.54;100784.71;1648603;86;21037;-71
2022/05/02 06:48:09;;;;;;;6.22;1.70;;;;;;;17.20;31.22;100788.11;1646521;86;21148;-72
2022/05/02 06:50:38;;;;;;;6.00;1.57;;;;;;;17.26;31.75;100792.06;1645878;86;21125;-72
2022/05/02 06:53:32;;;;;;;2.55;1.40;;;;;;;17.46;31.26;100783.80;1617371;87;21035;-73
2022/05/02 06:56:29;;;;;;;6.58;1.20;;;;;;;17.70;31.17;100778.03;1623047;87;21633;-74
2022/05/02 06:59:21;;;;;;;1.52;1.30;;;;;;;18.17;30.30;100776.68;1610843;88;21100;-72
2022/05/02 07:01:53;;;;;;;3.75;1.85;;;;;;;18.59;29.67;100775.34;1613179;87;21052;-76
2022/05/02 07:04:46;;;;;;;3.87;1.55;;;;;;;18.70;29.62;100774.55;1622533;87;21151;-72
2022/05/02 07:07:43;;;;;;;6.08;1.35;;;;;;;18.89;29.40;100771.27;1649634;85;21144;-72
2022/05/02 07:10:26;;;;;;;2.83;1.12;;;;;;;19.06;28.77;100763.30;1630029;86;21544;-74
2022/05/02 07:13:15;;;;;;;5.12;1.42;;;;;;;19.22;28.62;100762.61;1623141;87;21028;-72
2022/05/02 07:16:02;;;;;;;2.15;0.90;;;;;;;19.51;28.63;100765.40;1621743;87;21091;-73
2022/05/02 07:18:59;;;;;;;2.15;0.78;;;;;;;19.37;27.98;100757.27;1631525;86;21128;-72
2022/05/02 07:21:39;;;;;;;0.80;0.70;;;;;;;19.01;27.56;100767.25;1576315;88;21604;-72
2022/05/02 07:24:38;;;;;;;1.10;1.00;;;;;;;18.76;28.94;100766.90;1632543;85;21051;-72
2022/05/02 07:27:28;;;;;;;2.72;1.32;;;;;;;18.29;28.47;100730.34;1647560;85;21182;-73
2022/05/02 07:29:58;;;;;;;3.85;1.25;;;;;;;18.29;29.11;100777.03;1635463;85;22314;-71
2022/05/02 07:32:27;;;;;;;2.22;1.30;;;;;;;18.21;29.98;100763.02;1647980;85;21076;-70
2022/05/02 07:34:55;;;;;;;1.25;1.00;;;;;;;18.28;29.92;100764.58;1638614;85;21553;-74
2022/05/02 07:37:22;;;;;;;2.27;1.17;;;;;;;18.25;29.69;100758.31;1631358;86;21113;-73
2022/05/02 07:39:51;;;;;;;6.87;1.05;;;;;;;18.28;29.70;100760.53;1630864;86;21134;-73
2022/05/02 07:42:20;;;;;;;2.60;1.32;;;;;;;18.27;29.61;100758.05;1649822;86;21062;-72
2022/05/02 07:44:51;;;;;;;1.17;0.70;;;;;;;18.21;29.19;100763.02;1613306;86;21094;-72
2022/05/02 07:47:19;;;;;;;3.62;1.00;;;;;;;18.11;30.15;100766.27;1631390;86;21724;-71
2022/05/02 07:49:48;;;;;;;0.82;0.82;;;;;;;18.10;29.98;100764.61;1644247;86;21389;-69
2022/05/02 07:52:21;;;;;;;5.50;1.05;;;;;;;18.12;29.71;100759.84;1631635;86;21195;-70
2022/05/02 07:54:48;;;;;;;1.17;0.60;;;;;;;18.17;29.69;100761.84;1613314;86;21098;-72
2022/05/02 07:57:16;;;;;;;1.10;0.82;;;;;;;18.25;29.72;100761.51;1618847;87;21127;-71
2022/05/02 07:59:44;;;;;;;1.77;0.72;;;;;;;18.41;29.46;100758.17;1616684;87;21128;-74
2022/05/02 08:02:11;;;;;;;2.47;0.93;;;;;;;18.56;29.60;100759.09;1606401;88;21030;-72
2022/05/02 08:04:40;;;;;;;0.82;0.50;;;;;;;18.67;29.51;100747.50;1632877;86;21109;-72
2022/05/02 08:07:17;;;;;;;3.90;0.85;;;;;;;18.82;28.75;100747.62;1632790;86;21062;-72
2022/05/02 08:09:47;;;;;;;;;;;;;;;18.84;28.48;100750.38;1635285;86;21065;-72
2022/05/02 08:12:39;;;;;;;1.32;0.62;;;;;;;18.71;28.17;100753.27;1645335;85;20162;-73
2022/05/02 08:15:22;;;;;;;0.85;0.47;;;;;;;18.50;28.61;100754.63;1643466;86;21680;-72
2022/05/02 08:18:27;;;;;;;1.42;0.60;;;;;;;18.26;28.21;100741.59;1623277;87;21558;-71
2022/05/02 08:21:17;;;;;;;2.00;0.57;;;;;;;18.26;28.21;100741.59;1678923;85;21078;-72
2022/05/02 08:27:21;;;;;;;1.62;0.60;;;;;;;18.47;28.15;100740.23;1619419;87;21083;-71
2022/05/02 08:30:23;;;;;;;1.02;0.50;;;;;;;18.56;27.93;100736.69;1622609;87;21684;-72
2022/05/02 08:33:08;;;;;;;0.80;0.80;;;;;;;18.60;28.04;100733.81;1627965;86;21131;-70
2022/05/02 08:36:05;;;;;;;2.52;0.28;;;;;;;18.67;27.98;100731.84;1619375;87;21054;-71
2022/05/02 08:38:52;;;;;;;6.30;0.40;;;;;;;18.56;28.11;100721.30;1619462;87;21176;-71
2022/05/02 08:41:45;;;;;;;0.85;0.40;;;;;;;18.58;26.94;100723.78;1619744;87;21047;-70
2022/05/02 08:44:48;;;;;;;1.50;0.20;;;;;;;18.66;26.32;100720.73;1608655;85;21566;-71
2022/05/02 08:47:52;;;;;;;1.32;0.40;;;;;;;18.84;26.65;100705.00;1655827;85;21047;-72
2022/05/02 08:50:36;;;;;;;2.47;0.60;;;;;;;18.84;26.65;100705.00;1662403;85;21076;-72
2022/05/02 08:53:31;;;;;;;1.95;0.30;;;;;;;18.98;26.59;100694.23;1661549;85;21009;-72
2022/05/02 08:56:20;;;;;;;0.68;0.30;;;;;;;18.96;26.14;100697.70;1671089;83;21086;-73
2022/05/02 08:59:21;;;;;;;0.65;0.35;;;;;;;18.81;26.71;100698.17;1698160;83;21081;-73
2022/05/02 09:02:17;;;;;;;3.27;0.57;;;;;;;18.64;26.42;100698.55;1691006;83;22127;-71
2022/05/02 09:05:19;;;;;;;4.28;0.42;;;;;;;18.48;26.57;100700.88;1686805;83;20967;-72
2022/05/02 09:08:13;;;;;;;0.68;0.20;;;;;;;18.51;26.78;100697.41;1697773;83;21066;-73
2022/05/02 09:11:08;;;;;;;3.87;0.37;;;;;;;18.58;26.33;100692.73;1693775;83;21061;-73
2022/05/02 09:13:57;;;;;;;0.42;0.42;;;;;;;18.58;26.33;100692.73;1688610;83;21034;-72
2022/05/02 09:16:29;;;;;;;1.05;0.30;;;;;;;18.39;26.88;100685.25;1688462;83;21054;-73
2022/05/02 09:19:40;;;;;;;0.30;0.30;;;;;;;18.39;26.88;100685.25;1688471;83;21669;-71
2022/05/02 09:22:27;;;;;;;0.40;0.33;;;;;;;18.40;26.71;100683.67;1688440;83;21027;-72
2022/05/02 09:25:11;;;;;;;0.68;0.30;;;;;;;18.51;26.63;100668.53;1688429;83;21030;-72
2022/05/02 09:28:03;;;;;;;0.72;0.30;;;;;;;18.63;26.34;100663.98;1688544;83;21634;-71
2022/05/02 09:31:03;;;;;;;3.60;0.40;;;;;;;18.71;26.59;100664.70;1688316;83;21323;-72
2022/05/02 09:33:51;;;;;;;2.42;0.30;;;;;;;18.67;26.43;100660.29;1688463;83;21098;-71
2022/05/02 09:36:30;;;;;;;0.37;0.35;;;;;;;18.62;25.94;100667.72;1687385;83;21562;-71
2022/05/02 09:39:15;;;;;;;0.33;0.25;;;;;;;18.61;26.00;100659.86;1688744;83;21081;-73
2022/05/02 09:42:30;;;;;;;0.45;0.30;;;;;;;18.60;25.81;100652.29;1660473;85;21605;-72
2022/05/02 09:51:53;;;;;;;5.80;0.90;;;;;;;18.74;25.76;100649.36;1688659;83;21109;-71
2022/05/02 09:58:31;;;;;;;1.05;0.30;;;;;;;18.64;26.38;100639.15;1688922;83;21101;-72
2022/05/02 10:01:26;;;;;;;0.80;0.55;;;;;;;18.75;25.95;100631.58;1698127;83;21070;-72
2022/05/02 10:04:32;;;;;;;1.52;0.30;;;;;;;18.93;25.99;100629.83;1689009;83;21082;-73
2022/05/02 10:07:08;;;;;;;0.65;0.57;;;;;;;19.04;25.88;100627.64;1688442;83;21054;-72
2022/05/02 10:10:05;;;;;;;1.60;0.40;;;;;;;19.20;25.38;100625.56;1717542;83;20995;-71
2022/05/02 10:13:05;;;;;;;1.85;0.50;;;;;;;19.26;25.57;100626.48;1717341;83;21077;-73
2022/05/02 10:15:56;;;;;;;1.02;0.35;;;;;;;19.29;25.17;100619.27;1698955;83;21146;-73
2022/05/02 10:19:06;;;;;;;2.05;0.25;;;;;;;19.26;25.49;100616.49;1691011;83;21057;-72
2022/05/02 10:21:39;;;;;;;9.18;0.57;;;;;;;19.20;25.56;100610.70;1606753;88;21199;-72
2022/05/02 10:24:46;;;;;;;2.42;0.20;;;;;;;19.17;25.78;100613.87;1644689;86;21045;-71
2022/05/02 10:27:34;;;;;;;0.40;0.30;;;;;;;19.28;25.98;100602.75;1656038;86;21083;-73
2022/05/02 10:30:12;;;;;;;3.83;0.50;;;;;;;19.46;25.24;100611.22;1651002;86;21772;-73
2022/05/02 10:32:56;;;;;;;2.60;0.45;;;;;;;19.45;24.58;100608.22;1670344;86;21126;-71
2022/05/02 10:35:25;;;;;;;1.20;0.20;;;;;;;19.32;25.17;100599.03;1670470;86;21539;-73
2022/05/02 10:37:57;;;;;;;0.60;0.40;;;;;;;19.26;25.45;100597.58;1670539;86;21093;-71
2022/05/02 10:40:32;;;;;;;0.70;0.28;;;;;;;19.19;24.91;100602.32;1670554;86;21067;-72
2022/05/02 10:43:04;;;;;;;2.30;0.30;;;;;;;19.11;25.46;100598.62;1654692;86;21126;-72
2022/05/02 10:45:36;;;;;;;0.40;0.30;;;;;;;19.03;25.53;100601.70;1668882;86;21138;-74
2022/05/02 10:48:22;;;;;;;0.80;0.40;;;;;;;19.06;25.85;100597.16;1704187;83;21050;-72
2022/05/02 10:51:16;;;;;;;1.92;0.62;;;;;;;19.16;25.35;100595.22;1690601;83;21014;-72
2022/05/02 10:54:07;;;;;;;1.50;0.20;;;;;;;19.22;25.19;100591.02;1692197;83;21598;-72
2022/05/02 10:56:48;;;;;;;4.72;0.50;;;;;;;19.23;25.39;100576.96;1717128;83;21660;-70
2022/05/02 10:59:15;;;;;;;0.75;0.45;;;;;;;19.26;25.36;100585.95;1714018;83;22124;-71
2022/05/02 11:02:25;;;;;;;0.50;0.20;;;;;;;19.30;25.14;100580.89;1694496;83;21026;-72
2022/05/02 11:05:11;;;;;;;0.55;0.50;;;;;;;19.35;25.26;100571.54;1695047;83;21183;-71
2022/05/02 11:07:54;;;;;;;1.82;0.30;;;;;;;19.48;25.30;100571.76;1688107;83;21557;-73
2022/05/02 11:10:29;;;;;;;1.02;0.47;;;;;;;19.62;25.22;100563.11;1688570;83;21023;-71
2022/05/02 11:13:13;;;;;;;1.17;0.30;;;;;;;19.74;24.91;100566.31;1688237;83;21038;-71
2022/05/02 11:16:24;;;;;;;0.98;0.72;;;;;;;19.76;24.62;100561.48;1690773;83;21371;-73
2022/05/02 11:22:19;;;;;;;1.52;0.37;;;;;;;19.71;24.87;100557.33;1688675;83;21129;-71
2022/05/02 11:25:10;;;;;;;1.50;0.53;;;;;;;19.58;24.18;100557.91;1678965;83;21122;-71
2022/05/02 11:28:16;;;;;;;0.50;0.40;;;;;;;19.47;24.61;100553.38;1687594;83;21173;-71
2022/05/02 11:30:51;;;;;;;1.37;0.40;;;;;;;19.41;24.87;100550.30;1688591;83;21058;-72
2022/05/02 11:33:29;;;;;;;0.72;0.37;;;;;;;19.29;24.81;100553.56;1688505;83;21038;-72
2022/05/02 11:36:01;;;;;;;0.93;0.40;;;;;;;19.16;25.07;100540.64;1688276;83;21153;-71
2022/05/02 11:39:01;;;;;;;1.80;0.55;;;;;;;19.09;25.37;100537.79;1688967;83;21558;-71
2022/05/02 11:41:30;;;;;;;2.95;0.30;;;;;;;18.97;25.00;100539.19;1688683;83;21144;-72
2022/05/02 11:44:13;;;;;;;3.75;0.50;;;;;;;18.86;25.12;100533.55;1688689;83;21070;-71
2022/05/02 11:47:07;;;;;;;0.85;0.37;;;;;;;18.89;25.42;100530.08;1688716;83;21482;-72
2022/05/02 11:49:53;;;;;;;4.42;0.30;;;;;;;18.99;25.57;100522.20;1688912;83;21022;-73
2022/05/02 11:52:38;;;;;;;1.52;0.40;;;;;;;19.08;25.65;100518.58;1688493;83;21114;-71
2022/05/02 11:55:07;;;;;;;0.55;0.28;;;;;;;19.14;25.20;100514.39;1688701;83;21042;-70
2022/05/02 11:57:38;;;;;;;1.22;0.40;;;;;;;19.19;25.39;100522.61;1688720;83;20991;-73
2022/05/02 12:00:15;;;;;;;2.35;0.40;;;;;;;19.14;25.05;100512.23;1703747;83;21042;-72
2022/05/02 12:02:53;;;;;;;0.82;0.40;;;;;;;19.06;25.46;100510.70;1688228;83;22223;-73
2022/05/02 12:05:33;;;;;;;0.82;0.53;;;;;;;19.09;25.89;100499.97;1688883;83;21140;-71
2022/05/02 12:08:05;;;;;;;0.40;0.37;;;;;;;19.17;25.44;100494.98;1700762;83;21495;-72
2022/05/02 12:10:45;;;;;;;3.37;0.40;;;;;;;19.21;25.43;100500.73;1695275;83;21006;-72
2022/05/02 12:13:19;;;;;;;2.08;0.40;;;;;;;19.12;25.67;100491.36;1688560;83;21011;-71
2022/05/02 12:16:02;;;;;;;2.77;0.42;;;;;;;19.10;25.46;100486.73;1688722;83;21078;-73
2022/05/02 12:18:50;;;;;;;5.20;0.35;;;;;;;19.16;25.12;100497.41;1688478;83;21086;-71
2022/05/02 12:21:31;;;;;;;0.40;0.40;;;;;;;19.18;24.94;100488.53;1644868;86;22146;-71
2022/05/02 12:24:00;;;;;;;0.57;0.57;;;;;;;19.19;24.94;100483.43;1688574;83;21347;-72
2022/05/02 12:26:28;;;;;;;0.40;0.30;;;;;;;19.09;25.09;100477.81;1688704;83;21048;-71
2022/05/02 12:29:03;;;;;;;2.87;0.28;;;;;;;19.11;25.40;100482.98;1688552;83;21026;-72
2022/05/02 12:31:32;;;;;;;0.93;0.30;;;;;;;19.10;25.53;100481.33;1688045;83;21035;-72
2022/05/02 12:34:02;;;;;;;1.22;0.50;;;;;;;19.05;25.71;100483.42;1694040;83;21161;-72
2022/05/02 12:36:51;;;;;;;1.20;0.42;;;;;;;18.98;25.67;100484.09;1702392;83;21015;-72